createdAt,value
2023-01-28T00:01:07.250Z,62.80
2023-01-28T00:03:08.916Z,62.80
2023-01-28T00:05:10.724Z,62.70
2023-01-28T00:07:12.408Z,62.50
2023-01-28T00:09:14.114Z,62.70
2023-01-28T00:11:15.766Z,62.80
2023-01-28T00:13:17.376Z,62.90
2023-01-28T00:15:19.008Z,62.80
2023-01-28T00:17:20.660Z,62.80
2023-01-28T00:19:22.283Z,63.00
2023-01-28T00:21:23.935Z,62.90
2023-01-28T00:23:26.266Z,62.80
2023-01-28T00:25:27.914Z,62.80
2023-01-28T00:27:29.565Z,62.90
2023-01-28T00:29:32.922Z,63.00
2023-01-28T00:31:35.321Z,63.10
2023-01-28T00:33:37.452Z,63.10
2023-01-28T00:35:39.124Z,63.00
2023-01-28T00:37:40.772Z,63.00
2023-01-28T00:39:42.395Z,63.10
2023-01-28T00:41:44.357Z,63.10
2023-01-28T00:43:46.046Z,63.10
2023-01-28T00:45:50.139Z,63.20
2023-01-28T00:47:52.061Z,63.30
2023-01-28T00:49:54.584Z,63.10
2023-01-28T00:51:56.496Z,63.10
2023-01-28T00:53:58.190Z,63.20
2023-01-28T00:56:00.470Z,63.10
2023-01-28T00:58:02.102Z,63.30
2023-01-28T01:00:04.363Z,63.30
2023-01-28T01:02:12.410Z,63.40
2023-01-28T01:04:14.258Z,63.40
2023-01-28T01:06:16.104Z,63.50
2023-01-28T01:08:17.761Z,63.50
2023-01-28T01:10:19.796Z,63.40
2023-01-28T01:12:21.432Z,63.50
2023-01-28T01:14:23.090Z,63.40
2023-01-28T01:16:26.170Z,63.40
2023-01-28T01:18:27.828Z,63.40
2023-01-28T01:20:33.281Z,63.50
2023-01-28T01:22:35.435Z,63.50
2023-01-28T01:24:37.537Z,63.50
2023-01-28T01:26:39.166Z,63.50
2023-01-28T01:28:41.036Z,63.50
2023-01-28T01:30:42.722Z,63.70
2023-01-28T01:32:44.418Z,63.50
2023-01-28T01:34:46.057Z,63.50
2023-01-28T01:36:47.719Z,63.50
2023-01-28T01:38:53.176Z,63.50
2023-01-28T01:41:01.421Z,63.60
2023-01-28T01:43:14.478Z,63.70
2023-01-28T01:45:17.890Z,63.70
2023-01-28T01:47:21.274Z,63.70
2023-01-28T01:49:24.411Z,63.80
2023-01-28T01:51:28.760Z,63.80
2023-01-28T01:53:30.939Z,63.80
2023-01-28T01:55:37.604Z,63.90
2023-01-28T01:57:39.860Z,63.80
2023-01-28T01:59:42.297Z,63.90
2023-01-28T02:01:45.615Z,63.90
2023-01-28T02:03:51.251Z,64.10
2023-01-28T02:05:52.896Z,64.20
2023-01-28T02:08:16.919Z,64.10
2023-01-28T02:10:19.690Z,64.10
2023-01-28T02:12:24.007Z,64.10
2023-01-28T02:14:31.364Z,64.10
2023-01-28T02:16:33.716Z,64.30
2023-01-28T02:18:35.454Z,64.40
2023-01-28T02:20:55.800Z,64.50
2023-01-28T02:23:20.313Z,64.50
2023-01-28T02:25:34.749Z,64.60
2023-01-28T02:27:39.337Z,64.70
2023-01-28T02:29:48.268Z,64.80
2023-01-28T02:31:54.441Z,64.90
2023-01-28T02:34:02.003Z,64.80
2023-01-28T02:36:11.399Z,64.90
2023-01-28T02:38:16.344Z,64.80
2023-01-28T02:40:29.679Z,64.60
2023-01-28T02:42:32.654Z,64.70
2023-01-28T02:44:34.286Z,64.90
2023-01-28T02:46:55.842Z,64.70
2023-01-28T02:48:58.655Z,64.70
2023-01-28T02:51:00.361Z,64.70
2023-01-28T02:53:31.627Z,65.50
2023-01-28T02:55:42.360Z,64.70
2023-01-28T02:57:59.528Z,64.80
2023-01-28T03:00:01.278Z,64.80
2023-01-28T03:02:17.780Z,64.80
2023-01-28T03:04:22.826Z,64.90
2023-01-28T03:06:27.008Z,64.80
2023-01-28T03:08:52.266Z,64.80
2023-01-28T03:11:14.834Z,64.80
2023-01-28T03:13:35.134Z,64.70
2023-01-28T03:16:13.550Z,64.70
2023-01-28T03:18:36.541Z,64.70
2023-01-28T03:21:18.040Z,64.70
2023-01-28T03:23:41.103Z,64.70
2023-01-28T03:26:02.942Z,64.60
2023-01-28T03:28:25.699Z,64.70
2023-01-28T03:30:48.657Z,64.60
2023-01-28T03:33:19.340Z,64.70
2023-01-28T03:35:42.123Z,64.70
2023-01-28T03:37:44.273Z,64.60
2023-01-28T03:39:52.209Z,64.60
2023-01-28T03:41:58.282Z,64.70
2023-01-28T03:44:19.146Z,64.60
2023-01-28T03:46:22.269Z,64.60
2023-01-28T03:48:26.755Z,64.50
2023-01-28T03:50:28.549Z,64.50
2023-01-28T03:52:33.433Z,64.50
2023-01-28T03:54:51.893Z,64.50
2023-01-28T03:56:54.037Z,64.50
2023-01-28T03:58:57.214Z,64.30
2023-01-28T04:00:59.258Z,64.40
2023-01-28T04:03:01.096Z,64.40
2023-01-28T04:05:12.900Z,64.40
2023-01-28T04:07:20.283Z,64.50
2023-01-28T04:09:57.395Z,64.50
2023-01-28T04:12:11.572Z,64.60
2023-01-28T04:14:19.365Z,64.60
2023-01-28T04:16:38.372Z,64.60
2023-01-28T04:18:40.293Z,64.60
2023-01-28T04:20:43.090Z,64.70
2023-01-28T04:22:44.964Z,64.70
2023-01-28T04:24:48.910Z,64.70
2023-01-28T04:26:52.205Z,64.60
2023-01-28T04:28:54.450Z,64.50
2023-01-28T04:30:56.861Z,64.50
2023-01-28T04:33:19.039Z,64.40
2023-01-28T04:35:37.466Z,64.40
2023-01-28T04:37:52.737Z,64.40
2023-01-28T04:40:13.599Z,64.50
2023-01-28T04:42:30.320Z,64.50
2023-01-28T04:44:53.518Z,64.50
2023-01-28T04:47:12.080Z,64.50
2023-01-28T04:49:24.824Z,64.60
2023-01-28T04:51:42.072Z,64.60
2023-01-28T04:54:06.157Z,64.60
2023-01-28T04:56:09.518Z,64.70
2023-01-28T04:58:12.201Z,64.70
2023-01-28T05:00:15.159Z,64.60
2023-01-28T05:02:16.859Z,64.60
2023-01-28T05:04:20.037Z,64.60
2023-01-28T05:06:22.028Z,64.50
2023-01-28T05:08:25.844Z,64.50
2023-01-28T05:10:27.574Z,64.50
2023-01-28T05:12:32.786Z,64.50
2023-01-28T05:14:36.908Z,64.50
2023-01-28T05:16:46.116Z,64.50
2023-01-28T05:18:48.089Z,64.40
2023-01-28T05:20:51.936Z,64.50
2023-01-28T05:22:53.610Z,64.40
2023-01-28T05:25:03.749Z,64.40
2023-01-28T05:27:05.405Z,64.50
2023-01-28T05:29:08.165Z,64.40
2023-01-28T05:31:10.324Z,64.40
2023-01-28T05:33:11.987Z,64.50
2023-01-28T05:35:14.171Z,64.40
2023-01-28T05:37:16.185Z,64.40
2023-01-28T05:39:17.811Z,64.40
2023-01-28T05:41:19.501Z,64.40
2023-01-28T05:43:24.672Z,64.50
2023-01-28T05:45:45.420Z,64.50
2023-01-28T05:47:56.536Z,65.30
2023-01-28T05:50:02.713Z,64.50
2023-01-28T05:52:12.684Z,64.50
2023-01-28T05:54:14.587Z,65.40
2023-01-28T05:56:16.264Z,64.50
2023-01-28T05:58:18.027Z,64.50
2023-01-28T06:00:19.769Z,64.50
2023-01-28T06:02:21.781Z,64.50
2023-01-28T06:04:25.599Z,64.50
2023-01-28T06:06:27.717Z,64.40
2023-01-28T06:08:29.432Z,64.50
2023-01-28T06:10:31.181Z,64.40
2023-01-28T06:12:32.814Z,64.40
2023-01-28T06:14:57.315Z,64.30
2023-01-28T06:17:25.488Z,64.10
2023-01-28T06:19:41.627Z,64.20
2023-01-28T06:21:43.617Z,64.10
2023-01-28T06:23:46.281Z,64.20
2023-01-28T06:25:48.266Z,64.20
2023-01-28T06:27:50.963Z,64.30
2023-01-28T06:29:52.569Z,64.40
2023-01-28T06:31:54.246Z,64.20
2023-01-28T06:33:55.908Z,64.30
2023-01-28T06:35:57.581Z,64.30
2023-01-28T06:37:59.254Z,64.20
2023-01-28T06:40:00.965Z,64.10
2023-01-28T06:42:02.713Z,63.90
2023-01-28T06:44:04.448Z,64.00
2023-01-28T06:46:06.183Z,64.10
2023-01-28T06:48:08.894Z,64.20
2023-01-28T06:50:10.955Z,64.30
2023-01-28T06:52:12.742Z,64.30
2023-01-28T06:54:14.719Z,64.20
2023-01-28T06:56:16.364Z,64.20
2023-01-28T06:58:18.023Z,64.20
2023-01-28T07:00:20.067Z,64.10
2023-01-28T07:02:21.718Z,64.10
2023-01-28T07:04:23.403Z,64.10
2023-01-28T07:06:25.054Z,64.10
2023-01-28T07:08:26.693Z,64.10
2023-01-28T07:10:28.564Z,64.10
2023-01-28T07:12:30.257Z,64.10
2023-01-28T07:14:32.061Z,64.20
2023-01-28T07:16:33.732Z,64.10
2023-01-28T07:18:35.394Z,64.10
2023-01-28T07:20:37.024Z,64.10
2023-01-28T07:22:40.270Z,64.00
2023-01-28T07:24:41.880Z,64.10
2023-01-28T07:26:43.584Z,64.00
2023-01-28T07:28:45.359Z,64.00
2023-01-28T07:30:53.267Z,63.80
2023-01-28T07:32:56.079Z,64.00
2023-01-28T07:34:58.629Z,64.10
2023-01-28T07:37:00.305Z,64.10
2023-01-28T07:39:01.943Z,64.10
2023-01-28T07:41:03.580Z,64.10
2023-01-28T07:43:07.043Z,64.20
2023-01-28T07:45:12.703Z,64.20
2023-01-28T07:47:14.432Z,64.20
2023-01-28T07:49:16.319Z,64.20
2023-01-28T07:51:18.187Z,64.20
2023-01-28T07:53:20.270Z,64.20
2023-01-28T07:55:22.222Z,64.20
2023-01-28T07:57:23.868Z,64.10
2023-01-28T07:59:25.495Z,64.10
2023-01-28T08:01:27.155Z,64.10
2023-01-28T08:03:29.187Z,64.10
2023-01-28T08:05:41.271Z,64.20
2023-01-28T08:07:43.008Z,64.10
2023-01-28T08:09:44.703Z,63.90
2023-01-28T08:11:46.341Z,64.00
2023-01-28T08:13:48.461Z,64.00
2023-01-28T08:15:54.881Z,64.10
2023-01-28T08:17:57.766Z,64.20
2023-01-28T08:19:59.505Z,64.20
2023-01-28T08:22:01.211Z,64.20
2023-01-28T08:24:03.023Z,64.20
2023-01-28T08:26:04.767Z,64.20
2023-01-28T08:28:06.883Z,64.20
2023-01-28T08:30:11.480Z,64.20
2023-01-28T08:32:13.133Z,64.10
2023-01-28T08:34:14.749Z,64.10
2023-01-28T08:36:16.432Z,64.10
2023-01-28T08:38:20.005Z,64.10
2023-01-28T08:40:22.169Z,64.10
2023-01-28T08:42:24.569Z,64.20
2023-01-28T08:44:26.234Z,64.10
2023-01-28T08:46:27.925Z,64.00
2023-01-28T08:48:29.553Z,64.00
2023-01-28T08:50:32.891Z,64.00
2023-01-28T08:52:37.224Z,64.00
2023-01-28T08:54:38.874Z,64.10
2023-01-28T08:56:44.693Z,64.00
2023-01-28T08:58:46.432Z,64.00
2023-01-28T09:00:48.540Z,64.00
2023-01-28T09:02:53.197Z,63.70
2023-01-28T09:04:54.895Z,63.70
2023-01-28T09:06:56.691Z,63.60
2023-01-28T09:09:02.243Z,63.60
2023-01-28T09:11:20.622Z,63.60
2023-01-28T09:13:58.695Z,63.70
2023-01-28T09:16:52.292Z,63.60
2023-01-28T09:18:59.688Z,63.70
2023-01-28T09:23:59.158Z,63.80
2023-01-28T09:26:12.956Z,63.60
2023-01-28T09:28:14.658Z,63.70
2023-01-28T09:30:16.809Z,63.60
2023-01-28T09:32:18.768Z,63.40
2023-01-28T09:34:20.437Z,63.50
2023-01-28T09:36:22.072Z,63.20
2023-01-28T09:38:23.734Z,63.20
2023-01-28T09:40:45.787Z,63.20
2023-01-28T09:42:56.937Z,63.40
2023-01-28T09:45:05.932Z,63.40
2023-01-28T09:47:12.510Z,63.50
2023-01-28T09:49:30.263Z,63.70
2023-01-28T09:51:34.681Z,63.70
2023-01-28T09:53:42.986Z,63.80
2023-01-28T09:55:47.797Z,63.70
2023-01-28T09:57:53.445Z,63.60
2023-01-28T09:59:55.208Z,63.60
2023-01-28T10:02:00.059Z,63.60
2023-01-28T10:04:23.128Z,63.70
2023-01-28T10:06:48.797Z,63.70
2023-01-28T10:08:59.523Z,63.70
2023-01-28T10:11:07.196Z,63.60
2023-01-28T10:13:19.271Z,63.60
2023-01-28T10:15:28.709Z,63.50
2023-01-28T10:17:30.376Z,63.50
2023-01-28T10:19:35.897Z,63.50
2023-01-28T10:22:03.699Z,63.50
2023-01-28T10:24:25.980Z,63.00
2023-01-28T10:26:30.924Z,63.10
2023-01-28T10:28:34.691Z,63.10
2023-01-28T10:30:36.906Z,63.10
2023-01-28T10:32:42.026Z,62.90
2023-01-28T10:34:43.802Z,62.70
2023-01-28T10:36:45.665Z,62.50
2023-01-28T10:38:47.310Z,62.80
2023-01-28T10:40:49.467Z,62.80
2023-01-28T10:42:51.252Z,62.90
2023-01-28T10:44:53.320Z,62.80
2023-01-28T10:46:57.041Z,62.60
2023-01-28T10:49:04.579Z,63.40
2023-01-28T10:51:06.386Z,62.80
2023-01-28T10:53:08.273Z,62.70
2023-01-28T10:55:14.310Z,62.60
2023-01-28T10:57:17.376Z,62.40
2023-01-28T10:59:21.500Z,62.50
2023-01-28T11:01:24.500Z,62.50
2023-01-28T11:03:30.854Z,62.60
2023-01-28T11:05:32.576Z,62.70
2023-01-28T11:07:34.384Z,62.70
2023-01-28T11:09:37.875Z,62.90
2023-01-28T11:11:39.697Z,62.90
2023-01-28T11:13:49.583Z,62.80
2023-01-28T11:15:51.239Z,62.90
2023-01-28T11:17:56.152Z,62.90
2023-01-28T11:20:01.762Z,63.00
2023-01-28T11:22:03.493Z,62.60
2023-01-28T11:24:13.270Z,62.70
2023-01-28T11:26:17.418Z,62.70
2023-01-28T11:28:21.607Z,62.70
2023-01-28T11:30:31.139Z,62.40
2023-01-28T11:32:32.971Z,62.50
2023-01-28T11:34:34.983Z,62.60
2023-01-28T11:36:36.713Z,62.50
2023-01-28T11:38:47.290Z,62.50
2023-01-28T11:40:52.892Z,62.60
2023-01-28T11:42:59.209Z,62.60
2023-01-28T11:45:00.880Z,63.30
2023-01-28T11:47:05.742Z,62.50
2023-01-28T11:49:23.472Z,62.40
2023-01-28T11:51:34.446Z,62.20
2023-01-28T11:53:54.629Z,62.50
2023-01-28T11:55:56.599Z,62.40
2023-01-28T11:58:01.300Z,62.40
2023-01-28T12:00:16.842Z,62.30
2023-01-28T12:02:38.929Z,62.20
2023-01-28T12:04:40.687Z,62.20
2023-01-28T12:06:49.343Z,62.20
2023-01-28T12:08:57.337Z,62.20
2023-01-28T12:11:07.676Z,62.10
2023-01-28T12:13:12.298Z,62.10
2023-01-28T12:15:20.009Z,62.20
2023-01-28T12:17:40.474Z,62.20
2023-01-28T12:19:42.160Z,62.10
2023-01-28T12:21:58.177Z,62.20
2023-01-28T12:24:10.369Z,62.20
2023-01-28T12:26:12.169Z,62.20
2023-01-28T12:28:16.456Z,62.10
2023-01-28T12:30:44.322Z,62.20
2023-01-28T12:33:09.271Z,62.30
2023-01-28T12:35:11.063Z,62.00
2023-01-28T12:37:27.874Z,61.90
2023-01-28T12:39:38.716Z,61.90
2023-01-28T12:41:42.788Z,61.70
2023-01-28T12:43:49.001Z,61.60
2023-01-28T12:46:00.766Z,61.50
2023-01-28T12:48:07.797Z,61.40
2023-01-28T12:50:17.555Z,61.40
2023-01-28T12:52:24.324Z,61.50
2023-01-28T12:54:34.088Z,61.50
2023-01-28T12:56:38.457Z,61.50
2023-01-28T12:58:43.348Z,61.60
2023-01-28T13:00:54.340Z,61.60
2023-01-28T13:03:02.162Z,61.50
2023-01-28T13:05:10.976Z,61.30
2023-01-28T13:07:18.734Z,61.30
2023-01-28T13:09:22.304Z,61.40
2023-01-28T13:11:24.464Z,61.20
2023-01-28T13:13:39.475Z,61.40
2023-01-28T13:15:42.901Z,61.50
2023-01-28T13:17:54.430Z,61.40
2023-01-28T13:19:56.838Z,61.40
2023-01-28T13:21:58.510Z,61.20
2023-01-28T13:24:02.837Z,61.00
2023-01-28T13:26:19.637Z,61.20
2023-01-28T13:28:29.622Z,61.10
2023-01-28T13:30:31.408Z,61.10
2023-01-28T13:32:35.309Z,61.10
2023-01-28T13:34:40.460Z,61.30
2023-01-28T13:36:46.476Z,61.30
2023-01-28T13:38:49.305Z,61.10
2023-01-28T13:41:00.626Z,61.10
2023-01-28T13:43:04.003Z,61.30
2023-01-28T13:45:15.227Z,61.20
2023-01-28T13:47:23.466Z,61.10
2023-01-28T13:49:38.545Z,61.10
2023-01-28T13:51:40.698Z,61.00
2023-01-28T13:54:00.943Z,60.70
2023-01-28T13:56:05.695Z,60.80
2023-01-28T13:58:10.135Z,60.90
2023-01-28T14:00:26.256Z,61.10
2023-01-28T14:02:37.632Z,60.90
2023-01-28T14:04:39.464Z,60.80
2023-01-28T14:06:55.163Z,60.40
2023-01-28T14:09:20.594Z,60.30
2023-01-28T14:11:40.483Z,60.60
2023-01-28T14:13:50.942Z,60.80
2023-01-28T14:15:55.669Z,60.90
2023-01-28T14:17:58.045Z,60.50
2023-01-28T14:20:00.423Z,60.80
2023-01-28T14:22:09.138Z,60.70
2023-01-28T14:24:19.823Z,60.80
2023-01-28T14:26:40.282Z,60.80
2023-01-28T14:28:41.904Z,60.90
2023-01-28T14:30:48.902Z,60.80
2023-01-28T14:32:52.525Z,60.70
2023-01-28T14:34:54.590Z,61.00
2023-01-28T14:36:58.038Z,61.00
2023-01-28T14:39:00.964Z,61.00
2023-01-28T14:41:05.077Z,60.80
2023-01-28T14:43:07.937Z,61.00
2023-01-28T14:45:12.755Z,61.00
2023-01-28T14:47:26.549Z,60.80
2023-01-28T14:49:36.697Z,60.70
2023-01-28T14:51:38.336Z,60.80
2023-01-28T14:53:39.979Z,60.60
2023-01-28T14:55:50.991Z,61.70
2023-01-28T14:57:54.591Z,61.50
2023-01-28T15:00:02.556Z,60.80
2023-01-28T15:02:10.953Z,60.90
2023-01-28T15:04:32.353Z,61.00
2023-01-28T15:06:35.303Z,60.90
2023-01-28T15:08:39.416Z,60.60
2023-01-28T15:10:41.881Z,60.60
2023-01-28T15:12:47.869Z,60.20
2023-01-28T15:14:49.713Z,60.30
2023-01-28T15:16:51.616Z,60.50
2023-01-28T15:18:53.401Z,60.70
2023-01-28T15:20:55.789Z,60.90
2023-01-28T15:22:57.693Z,61.00
2023-01-28T15:24:59.418Z,60.90
2023-01-28T15:27:01.316Z,60.70
2023-01-28T15:29:03.291Z,60.60
2023-01-28T15:31:05.672Z,61.50
2023-01-28T15:33:14.721Z,60.70
2023-01-28T15:35:16.441Z,60.40
2023-01-28T15:37:18.393Z,60.50
2023-01-28T15:39:21.604Z,60.30
2023-01-28T15:41:32.485Z,60.50
2023-01-28T15:43:38.179Z,60.50
2023-01-28T15:45:44.790Z,60.70
2023-01-28T15:47:47.220Z,60.70
2023-01-28T15:49:54.259Z,60.70
2023-01-28T15:51:55.953Z,60.50
2023-01-28T15:54:07.582Z,60.60
2023-01-28T15:56:10.777Z,60.40
2023-01-28T15:58:18.132Z,60.60
2023-01-28T16:00:20.624Z,60.40
2023-01-28T16:02:22.372Z,60.30
2023-01-28T16:04:28.904Z,60.40
2023-01-28T16:06:32.617Z,60.20
2023-01-28T16:08:37.223Z,60.50
2023-01-28T16:10:39.035Z,60.60
2023-01-28T16:12:40.739Z,60.60
2023-01-28T16:14:44.232Z,60.60
2023-01-28T16:16:47.128Z,60.60
2023-01-28T16:18:52.826Z,60.80
2023-01-28T16:20:54.895Z,60.70
2023-01-28T16:23:00.975Z,60.60
2023-01-28T16:25:03.622Z,60.60
2023-01-28T16:27:09.752Z,60.50
2023-01-28T16:29:15.804Z,60.30
2023-01-28T16:31:17.926Z,60.40
2023-01-28T16:33:20.783Z,60.50
2023-01-28T16:35:23.785Z,60.50
2023-01-28T16:39:34.429Z,60.60
2023-01-28T16:41:43.372Z,60.40
2023-01-28T16:43:45.113Z,60.40
2023-01-28T16:45:46.795Z,60.60
2023-01-28T16:47:48.910Z,60.60
2023-01-28T16:49:50.647Z,60.50
2023-01-28T16:51:52.542Z,60.20
2023-01-28T16:53:54.809Z,60.40
2023-01-28T16:56:00.127Z,60.60
2023-01-28T16:58:01.813Z,60.40
2023-01-28T17:00:04.401Z,60.50
2023-01-28T17:02:06.464Z,60.50
2023-01-28T17:04:12.702Z,60.60
2023-01-28T17:06:18.023Z,60.60
2023-01-28T17:08:19.805Z,60.40
2023-01-28T17:10:21.647Z,60.00
2023-01-28T17:12:28.450Z,60.10
2023-01-28T17:14:36.131Z,60.10
2023-01-28T17:16:38.168Z,60.20
2023-01-28T17:18:40.063Z,60.30
2023-01-28T17:20:41.751Z,60.10
2023-01-28T17:22:43.526Z,60.10
2023-01-28T17:24:46.349Z,60.20
2023-01-28T17:26:51.286Z,60.20
2023-01-28T17:28:53.539Z,60.20
2023-01-28T17:30:55.232Z,60.10
2023-01-28T17:32:56.918Z,60.20
2023-01-28T17:34:58.668Z,60.20
2023-01-28T17:37:00.354Z,60.20
2023-01-28T17:39:02.097Z,60.40
2023-01-28T17:41:04.998Z,60.40
2023-01-28T17:43:06.664Z,60.40
2023-01-28T17:45:08.620Z,60.30
2023-01-28T17:47:10.407Z,60.20
2023-01-28T17:49:12.709Z,60.20
2023-01-28T17:51:16.963Z,60.10
2023-01-28T17:53:18.923Z,60.30
2023-01-28T17:55:20.676Z,60.20
2023-01-28T17:57:22.620Z,60.20
2023-01-28T17:59:25.876Z,60.00
2023-01-28T18:01:29.841Z,60.00
2023-01-28T18:03:31.502Z,60.00
2023-01-28T18:05:36.937Z,60.00
2023-01-28T18:07:38.979Z,60.00
2023-01-28T18:09:41.781Z,59.50
2023-01-28T18:11:43.644Z,59.80
2023-01-28T18:13:45.684Z,59.80
2023-01-28T18:15:47.354Z,59.50
2023-01-28T18:17:49.142Z,59.50
2023-01-28T18:19:50.878Z,59.50
2023-01-28T18:21:53.696Z,59.60
2023-01-28T18:23:55.531Z,59.80
2023-01-28T18:25:58.032Z,59.80
2023-01-28T18:27:59.836Z,59.80
2023-01-28T18:30:01.579Z,59.70
2023-01-28T18:32:04.539Z,59.80
2023-01-28T18:34:06.319Z,59.80
2023-01-28T18:36:09.087Z,59.80
2023-01-28T18:38:11.309Z,59.70
2023-01-28T18:40:13.213Z,59.80
2023-01-28T18:42:15.014Z,60.00
2023-01-28T18:44:16.800Z,59.90
2023-01-28T18:46:18.943Z,60.00
2023-01-28T18:48:20.742Z,59.80
2023-01-28T18:50:22.516Z,59.80
2023-01-28T18:52:24.416Z,60.00
2023-01-28T18:54:26.879Z,59.80
2023-01-28T18:56:29.249Z,59.80
2023-01-28T18:58:30.999Z,59.80
2023-01-28T19:00:32.812Z,59.80
2023-01-28T19:02:36.971Z,60.00
2023-01-28T19:04:38.790Z,59.90
2023-01-28T19:06:41.196Z,59.80
2023-01-28T19:08:42.965Z,60.00
2023-01-28T19:10:45.006Z,59.90
2023-01-28T19:12:46.849Z,59.90
2023-01-28T19:14:48.972Z,59.90
2023-01-28T19:16:50.756Z,59.90
2023-01-28T19:18:53.633Z,59.90
2023-01-28T19:20:55.363Z,60.00
2023-01-28T19:22:57.319Z,59.90
2023-01-28T19:24:59.091Z,59.80
2023-01-28T19:27:00.994Z,59.80
2023-01-28T19:29:03.287Z,59.80
2023-01-28T19:31:05.028Z,59.80
2023-01-28T19:33:09.974Z,59.80
2023-01-28T19:35:11.754Z,59.50
2023-01-28T19:37:13.456Z,59.60
2023-01-28T19:39:15.397Z,59.40
2023-01-28T19:41:17.477Z,59.50
2023-01-28T19:43:20.240Z,59.50
2023-01-28T19:45:21.974Z,59.50
2023-01-28T19:47:23.933Z,59.60
2023-01-28T19:49:26.534Z,59.60
2023-01-28T19:51:28.368Z,59.50
2023-01-28T19:53:32.323Z,59.50
2023-01-28T19:55:40.774Z,59.60
2023-01-28T19:57:44.605Z,59.60
2023-01-28T19:59:49.241Z,59.50
2023-01-28T20:01:52.870Z,59.30
2023-01-28T20:04:02.489Z,59.50
2023-01-28T20:06:05.287Z,59.60
2023-01-28T20:08:13.246Z,59.80
2023-01-28T20:10:14.996Z,59.90
2023-01-28T20:12:16.722Z,59.80
2023-01-28T20:14:25.504Z,59.90
2023-01-28T20:16:31.860Z,59.70
2023-01-28T20:18:36.050Z,59.70
2023-01-28T20:20:38.286Z,59.70
2023-01-28T20:22:45.836Z,59.30
2023-01-28T20:24:57.167Z,59.30
2023-01-28T20:27:00.002Z,59.10
2023-01-28T20:29:06.238Z,59.20
2023-01-28T20:31:11.292Z,59.20
2023-01-28T20:33:16.357Z,59.40
2023-01-28T20:35:20.539Z,59.50
2023-01-28T20:37:22.387Z,59.50
2023-01-28T20:39:24.383Z,59.50
2023-01-28T20:41:30.373Z,59.70
2023-01-28T20:43:33.279Z,59.50
2023-01-28T20:45:38.302Z,59.50
2023-01-28T20:47:40.118Z,59.60
2023-01-28T20:49:42.114Z,59.60
2023-01-28T20:54:00.807Z,59.40
2023-01-28T20:56:06.015Z,59.50
2023-01-28T20:58:11.020Z,59.60
2023-01-28T21:00:16.012Z,59.70
2023-01-28T21:02:18.015Z,59.40
2023-01-28T21:04:20.041Z,59.30
2023-01-28T21:06:25.821Z,59.60
2023-01-28T21:08:30.259Z,59.40
2023-01-28T21:10:34.850Z,59.50
2023-01-28T21:12:38.933Z,59.50
2023-01-28T21:14:40.689Z,59.20
2023-01-28T21:16:43.156Z,59.10
2023-01-28T21:18:45.022Z,59.30
2023-01-28T21:20:46.751Z,59.40
2023-01-28T21:22:51.965Z,59.20
2023-01-28T21:24:53.735Z,59.30
2023-01-28T21:26:55.493Z,59.40
2023-01-28T21:28:57.148Z,59.40
2023-01-28T21:31:15.745Z,59.40
2023-01-28T21:33:17.391Z,59.90
2023-01-28T21:35:19.085Z,59.40
2023-01-28T21:37:22.411Z,59.30
2023-01-28T21:39:24.212Z,59.40
2023-01-28T21:41:26.207Z,59.20
2023-01-28T21:43:27.882Z,59.10
2023-01-28T21:45:29.614Z,59.10
2023-01-28T21:47:31.330Z,59.20
2023-01-28T21:49:33.002Z,59.30
2023-01-28T21:51:37.259Z,59.10
2023-01-28T21:53:39.618Z,59.00
2023-01-28T21:55:44.434Z,59.10
2023-01-28T21:57:46.096Z,59.20
2023-01-28T21:59:47.697Z,59.20
2023-01-28T22:01:49.383Z,59.10
2023-01-28T22:03:51.058Z,59.20
2023-01-28T22:05:55.971Z,59.00
2023-01-28T22:07:57.770Z,59.20
2023-01-28T22:09:59.502Z,58.80
2023-01-28T22:12:03.607Z,58.70
2023-01-28T22:14:05.611Z,58.70
2023-01-28T22:16:07.559Z,58.90
2023-01-28T22:18:09.187Z,59.00
2023-01-28T22:20:11.078Z,59.00
2023-01-28T22:22:12.755Z,59.10
2023-01-28T22:24:15.607Z,58.90
2023-01-28T22:26:17.392Z,58.60
2023-01-28T22:28:19.066Z,58.90
2023-01-28T22:30:20.875Z,58.90
2023-01-28T22:32:23.982Z,58.90
2023-01-28T22:34:26.162Z,58.90
2023-01-28T22:36:27.992Z,59.00
2023-01-28T22:38:29.681Z,59.00
2023-01-28T22:40:32.386Z,58.70
2023-01-28T22:42:34.119Z,58.60
2023-01-28T22:44:38.447Z,58.70
2023-01-28T22:46:40.293Z,58.60
2023-01-28T22:48:42.064Z,58.70
2023-01-28T22:50:43.689Z,58.80
2023-01-28T22:52:46.590Z,58.80
2023-01-28T22:54:48.261Z,59.00
2023-01-28T22:56:50.025Z,59.00
2023-01-28T22:58:55.686Z,59.00
2023-01-28T23:00:57.435Z,58.60
2023-01-28T23:03:00.410Z,58.70
2023-01-28T23:05:02.083Z,58.70
2023-01-28T23:07:03.776Z,58.80
2023-01-28T23:09:05.458Z,58.70
2023-01-28T23:11:15.309Z,58.30
2023-01-28T23:13:18.161Z,58.50
2023-01-28T23:15:40.590Z,58.70
2023-01-28T23:18:01.622Z,58.70
2023-01-28T23:20:21.978Z,58.80
2023-01-28T23:22:45.153Z,58.90
2023-01-28T23:24:46.869Z,59.00
2023-01-28T23:26:56.243Z,59.00
2023-01-28T23:28:59.891Z,59.00
2023-01-28T23:31:01.615Z,58.90
2023-01-28T23:33:04.366Z,58.90
2023-01-28T23:35:07.158Z,59.00
2023-01-28T23:37:10.049Z,59.00
2023-01-28T23:39:11.699Z,59.10
2023-01-28T23:41:13.379Z,59.10
2023-01-28T23:43:15.013Z,59.00
2023-01-28T23:45:17.224Z,59.10
2023-01-28T23:47:18.891Z,59.60
2023-01-28T23:49:20.698Z,58.80
2023-01-28T23:51:22.353Z,59.00
2023-01-28T23:53:24.029Z,59.00
2023-01-28T23:55:25.702Z,59.00
2023-01-28T23:57:27.423Z,59.00
2023-01-28T23:59:29.107Z,59.10
